Time;durP1;ratioP1;P1;durP2;ratioP2;P2;SDS_P1;SDS_P2;PMS_P1;PMS_P2;Temp;Humidity;BMP_temperature;BMP_pressure;BME280_temperature;BME280_humidity;BME280_pressure;Samples;Min_cycle;Max_cycle;Signal;HPM_P1;HPM_P2
2024/03/11 00:00:45;;;;;;;9.20;5.00;;;;;;;9.48;68.23;96247.00;105135;1257;97517;-83
2024/03/11 00:04:03;;;;;;;15.40;7.10;;;;;;;9.49;68.31;96240.81;105332;1253;103837;-83
2024/03/11 00:06:44;;;;;;;12.60;6.10;;;;;;;9.50;68.28;96244.95;105189;1257;100369;-81
2024/03/11 00:09:44;;;;;;;8.50;4.20;;;;;;;9.51;68.31;96249.77;105187;1257;99000;-84
2024/03/11 00:12:49;;;;;;;6.30;3.40;;;;;;;9.52;68.36;96247.73;105123;1254;97388;-82
2024/03/11 00:15:59;;;;;;;5.50;3.90;;;;;;;9.52;68.36;96243.38;105093;1253;97070;-83
2024/03/11 00:19:08;;;;;;;7.20;4.20;;;;;;;9.50;68.40;96241.66;105179;1253;101275;-82
2024/03/11 00:21:59;;;;;;;5.90;3.70;;;;;;;9.46;68.63;96242.47;105116;1257;100352;-82
2024/03/11 00:25:01;;;;;;;5.20;3.60;;;;;;;9.43;68.64;96244.75;105139;1257;99635;-83
2024/03/11 00:28:09;;;;;;;4.30;3.30;;;;;;;9.44;68.62;96251.07;105368;1257;97114;-89
2024/03/11 00:31:18;;;;;;;6.30;4.80;;;;;;;9.45;68.76;96249.23;105107;1256;97050;-90
2024/03/11 00:34:27;;;;;;;5.60;3.70;;;;;;;9.46;68.76;96246.66;105080;1256;101167;-88
2024/03/11 00:37:36;;;;;;;4.50;3.90;;;;;;;9.47;68.85;96248.75;104864;1255;100401;-88
2024/03/11 00:40:45;;;;;;;5.00;3.80;;;;;;;9.50;68.79;96248.98;104917;1268;99013;-90
2024/03/11 00:43:53;;;;;;;4.60;3.80;;;;;;;9.51;68.77;96246.10;104988;1259;97802;-82
2024/03/11 00:46:43;;;;;;;5.90;3.70;;;;;;;9.49;68.89;96240.89;104905;1267;97076;-83
2024/03/11 00:49:29;;;;;;;5.40;4.40;;;;;;;9.49;68.77;96234.73;104809;1260;102170;-85
2024/03/11 00:52:27;;;;;;;5.80;4.00;;;;;;;9.50;68.87;96228.45;105038;1267;100353;-82
2024/03/11 00:55:18;;;;;;;4.60;3.70;;;;;;;9.50;68.96;96233.30;104899;1270;98823;-85
2024/03/11 00:58:17;;;;;;;5.50;3.90;;;;;;;9.49;68.90;96232.15;105039;1258;96586;-82
2024/03/11 01:01:06;;;;;;;3.60;3.10;;;;;;;9.50;68.84;96234.12;104958;1259;97086;-89
2024/03/11 01:03:59;;;;;;;5.70;3.60;;;;;;;9.51;68.95;96229.17;104859;1260;101443;-83
2024/03/11 01:07:07;;;;;;;4.00;3.40;;;;;;;9.50;68.95;96222.98;104907;1260;101533;-88
2024/03/11 01:10:15;;;;;;;4.30;3.30;;;;;;;9.48;68.95;96234.15;104881;1255;99618;-88
2024/03/11 01:13:09;;;;;;;3.40;2.80;;;;;;;9.48;68.97;96233.89;104909;1259;96545;-88
2024/03/11 01:16:08;;;;;;;4.70;3.40;;;;;;;9.50;68.94;96232.43;104630;1261;96498;-83
2024/03/11 01:18:39;;;;;;;3.60;3.20;;;;;;;9.50;69.04;96228.83;104951;1258;101359;-82
2024/03/11 01:21:49;;;;;;;4.10;3.60;;;;;;;9.50;68.99;96226.20;104800;1271;100969;-90
2024/03/11 01:24:57;;;;;;;5.80;4.00;;;;;;;9.51;69.04;96218.56;104844;1261;99028;-89
2024/03/11 01:27:53;;;;;;;4.70;3.80;;;;;;;9.45;69.05;96216.90;104864;1260;96550;-89
2024/03/11 01:31:00;;;;;;;5.40;3.50;;;;;;;9.43;69.16;96214.10;104860;1254;97232;-90
2024/03/11 01:34:02;;;;;;;5.00;3.20;;;;;;;9.39;69.20;96216.83;105055;1255;100873;-82
2024/03/11 01:37:04;;;;;;;4.90;3.60;;;;;;;9.37;69.21;96214.45;104957;1276;100069;-83
2024/03/11 01:39:57;;;;;;;3.90;3.50;;;;;;;9.35;69.45;96208.38;104930;1259;98686;-82
2024/03/11 01:42:59;;;;;;;4.60;3.90;;;;;;;9.34;69.52;96206.13;104831;1261;96656;-89
2024/03/11 01:45:43;;;;;;;4.50;3.80;;;;;;;9.32;69.62;96196.77;104862;1262;96610;-86
2024/03/11 01:48:34;;;;;;;5.20;4.10;;;;;;;9.32;69.58;96193.42;104981;1271;101271;-91
2024/03/11 01:51:35;;;;;;;4.70;4.10;;;;;;;9.33;69.68;96200.24;105005;1259;100786;-88
2024/03/11 01:54:42;;;;;;;5.30;4.30;;;;;;;9.32;69.78;96195.54;104774;1260;98976;-89
2024/03/11 01:57:50;;;;;;;6.10;4.50;;;;;;;9.33;70.00;96194.04;104804;1255;97157;-90
2024/03/11 02:00:44;;;;;;;6.60;4.40;;;;;;;9.34;69.87;96195.75;104934;1261;97781;-88
2024/03/11 02:03:43;;;;;;;7.60;4.80;;;;;;;9.36;69.93;96187.45;105033;1259;101248;-82
2024/03/11 02:06:33;;;;;;;8.50;4.60;;;;;;;9.37;69.96;96188.60;104999;1260;100180;-85
2024/03/11 02:09:34;;;;;;;7.80;4.60;;;;;;;9.37;69.98;96191.29;104852;1259;100111;-83
2024/03/11 02:12:24;;;;;;;7.40;5.60;;;;;;;9.38;70.10;96194.50;104966;1256;96559;-83
2024/03/11 02:15:05;;;;;;;8.00;5.70;;;;;;;9.39;70.14;96187.70;105020;1259;97035;-81
2024/03/11 02:17:55;;;;;;;9.20;5.00;;;;;;;9.41;70.16;96184.67;105076;1260;101485;-83
2024/03/11 02:20:28;;;;;;;7.80;5.10;;;;;;;9.43;70.22;96186.95;105037;1257;101585;-81
2024/03/11 02:23:20;;;;;;;8.40;5.60;;;;;;;9.43;70.26;96191.25;104986;1269;98506;-87
2024/03/11 02:25:48;;;;;;;8.70;5.20;;;;;;;9.44;70.22;96193.48;104892;1254;96649;-83
2024/03/11 02:28:57;;;;;;;7.80;5.50;;;;;;;9.44;70.06;96198.94;105014;1254;97486;-82
2024/03/11 02:32:05;;;;;;;9.40;6.00;;;;;;;9.43;70.18;96197.23;105004;1270;101516;-89
2024/03/11 02:35:13;;;;;;;8.90;5.20;;;;;;;9.39;70.26;96201.16;105081;1257;101334;-90
2024/03/11 02:37:45;;;;;;;8.30;5.90;;;;;;;9.35;70.29;96195.83;104979;1254;100276;-89
2024/03/11 02:40:54;;;;;;;9.60;5.80;;;;;;;9.33;70.42;96184.20;104895;1256;97041;-84
2024/03/11 02:43:52;;;;;;;8.80;6.00;;;;;;;9.33;70.47;96178.46;107991;1256;95828;-84
2024/03/11 02:47:01;;;;;;;8.20;5.50;;;;;;;9.32;70.66;96183.23;105044;1257;101223;-83
2024/03/11 02:50:09;;;;;;;7.00;5.50;;;;;;;9.32;70.78;96185.94;104827;1254;101184;-83
2024/03/11 02:53:08;;;;;;;7.60;5.40;;;;;;;9.31;70.64;96190.88;105128;1258;98473;-83
2024/03/11 02:55:40;;;;;;;12.10;6.50;;;;;;;9.29;70.78;96193.04;104965;1254;97178;-87
2024/03/11 02:58:31;;;;;;;11.00;5.90;;;;;;;9.26;70.79;96193.88;104863;1259;96568;-82
2024/03/11 03:01:39;;;;;;;10.00;6.20;;;;;;;9.24;70.81;96193.62;105051;1270;102355;-82
2024/03/11 03:04:10;;;;;;;11.00;6.10;;;;;;;9.23;71.03;96187.30;104984;1254;100688;-82
2024/03/11 03:06:57;;;;;;;8.30;6.50;;;;;;;9.23;71.10;96176.78;104744;1261;99156;-83
2024/03/11 03:10:06;;;;;;;9.80;6.70;;;;;;;9.22;71.12;96169.83;105080;1260;97450;-83
2024/03/11 03:12:36;;;;;;;9.20;6.50;;;;;;;9.25;71.21;96175.13;104831;1260;97991;-83
2024/03/11 03:15:21;;;;;;;9.70;6.40;;;;;;;9.26;71.17;96175.48;105070;1259;101258;-82
2024/03/11 03:18:10;;;;;;;10.00;6.60;;;;;;;9.26;71.15;96173.70;105007;1256;100135;-81
2024/03/11 03:21:06;;;;;;;10.70;7.60;;;;;;;9.25;71.09;96169.15;104936;1259;99227;-83
2024/03/11 03:23:54;;;;;;;10.50;7.00;;;;;;;9.26;71.32;96167.61;105075;1255;97892;-82
2024/03/11 03:26:38;;;;;;;10.10;7.10;;;;;;;9.27;71.25;96166.89;105035;1256;97057;-83
2024/03/11 03:29:06;;;;;;;9.50;7.40;;;;;;;9.28;71.25;96165.52;104976;1257;102397;-82
2024/03/11 03:32:19;;;;;;;12.00;7.20;;;;;;;9.29;71.24;96163.69;104946;1259;100357;-91
2024/03/11 03:35:27;;;;;;;11.10;8.10;;;;;;;9.30;71.26;96158.64;104981;1257;107610;-90
2024/03/11 03:38:15;;;;;;;13.40;7.20;;;;;;;9.29;71.40;96158.31;104896;1257;96896;-82
2024/03/11 03:40:46;;;;;;;13.10;7.60;;;;;;;9.30;71.39;96150.09;104893;1258;97103;-83
2024/03/11 03:43:55;;;;;;;10.50;7.40;;;;;;;9.31;71.36;96143.98;105231;1261;102406;-81
2024/03/11 03:46:47;;;;;;;10.40;7.90;;;;;;;9.33;71.42;96143.58;105016;1257;100455;-88
2024/03/11 03:49:55;;;;;;;9.20;7.10;;;;;;;9.34;71.51;96142.64;105049;1259;100093;-88
2024/03/11 03:53:04;;;;;;;10.30;6.90;;;;;;;9.36;71.53;96138.31;105144;1258;96598;-88
2024/03/11 03:55:55;;;;;;;10.70;7.00;;;;;;;9.36;71.55;96138.55;105094;1260;96549;-81
2024/03/11 03:58:51;;;;;;;12.60;7.80;;;;;;;9.37;71.73;96139.42;105063;1259;101217;-83
2024/03/11 04:01:43;;;;;;;10.60;7.30;;;;;;;9.37;71.75;96140.99;105048;1259;100477;-90
2024/03/11 04:04:51;;;;;;;9.20;7.30;;;;;;;9.37;71.79;96140.95;104866;1275;97859;-91
2024/03/11 04:08:00;;;;;;;13.70;8.10;;;;;;;9.38;71.88;96138.27;104853;1256;96562;-90
2024/03/11 04:10:50;;;;;;;11.30;7.70;;;;;;;9.41;71.70;96142.96;104891;1260;98126;-88
2024/03/11 04:13:21;;;;;;;11.30;7.80;;;;;;;9.43;71.72;96144.55;104837;1262;101332;-91
2024/03/11 04:15:58;;;;;;;10.20;7.90;;;;;;;9.44;71.71;96140.55;104742;1254;100069;-82
2024/03/11 04:19:08;;;;;;;11.80;8.50;;;;;;;9.45;71.76;96138.42;104877;1255;99059;-83
2024/03/11 04:22:18;;;;;;;10.90;7.90;;;;;;;9.45;71.62;96145.10;105022;1254;96551;-83
2024/03/11 04:25:26;;;;;;;16.10;9.00;;;;;;;9.46;71.72;96149.85;105129;1258;97866;-79
2024/03/11 04:28:36;;;;;;;14.40;8.60;;;;;;;9.47;71.74;96149.17;104936;1269;101273;-79
2024/03/11 04:31:17;;;;;;;13.00;9.40;;;;;;;9.49;71.81;96152.95;104937;1259;100376;-83
2024/03/11 04:33:45;;;;;;;13.90;9.20;;;;;;;9.50;71.74;96156.54;104722;1260;99946;-83
2024/03/11 04:36:13;;;;;;;11.60;8.90;;;;;;;9.52;71.51;96156.15;104817;1262;96577;-82
2024/03/11 04:39:21;;;;;;;15.00;9.00;;;;;;;9.53;71.47;96154.30;104789;1255;97230;-83
2024/03/11 04:42:15;;;;;;;12.20;8.80;;;;;;;9.53;71.54;96148.70;104939;1272;101281;-84
2024/03/11 04:45:14;;;;;;;15.90;9.10;;;;;;;9.54;71.52;96150.05;105092;1259;100427;-83
2024/03/11 04:47:45;;;;;;;15.50;9.40;;;;;;;9.55;71.51;96144.56;104931;1260;100168;-82
2024/03/11 04:50:14;;;;;;;13.90;8.50;;;;;;;9.54;71.46;96148.76;105039;1259;96529;-81
2024/03/11 04:52:44;;;;;;;15.30;9.30;;;;;;;9.55;71.56;96146.77;104989;1254;97189;-86
2024/03/11 04:55:52;;;;;;;13.70;9.70;;;;;;;9.57;71.42;96148.27;104880;1259;101159;-90
2024/03/11 04:58:43;;;;;;;14.90;9.80;;;;;;;9.58;71.38;96151.11;104991;1259;100488;-83
2024/03/11 05:01:43;;;;;;;16.20;10.10;;;;;;;9.60;71.37;96153.04;104969;1259;98783;-83
2024/03/11 05:04:52;;;;;;;17.70;10.20;;;;;;;9.62;71.31;96149.90;104809;1264;96670;-82
2024/03/11 05:07:53;;;;;;;17.10;10.50;;;;;;;9.63;71.35;96149.30;104949;1258;96559;-82
2024/03/11 05:10:44;;;;;;;17.10;10.80;;;;;;;9.63;71.21;96142.66;105064;1254;100926;-83
2024/03/11 05:13:32;;;;;;;16.90;9.90;;;;;;;9.64;71.16;96141.12;104962;1259;101147;-82
2024/03/11 05:16:41;;;;;;;19.30;11.30;;;;;;;9.65;71.25;96137.33;105014;1259;98594;-82
2024/03/11 05:19:08;;;;;;;12.70;9.40;;;;;;;9.66;71.15;96131.30;104940;1257;96558;-81
2024/03/11 05:22:17;;;;;;;17.40;10.70;;;;;;;9.66;71.19;96132.27;105069;1259;97023;-84
2024/03/11 05:25:25;;;;;;;13.30;9.80;;;;;;;9.67;71.13;96130.89;105036;1259;101147;-81
2024/03/11 05:27:58;;;;;;;15.20;10.50;;;;;;;9.67;71.25;96125.54;104942;1262;101439;-82
2024/03/11 05:30:31;;;;;;;14.90;10.30;;;;;;;9.66;71.17;96117.51;104929;1259;99004;-82
2024/03/11 05:33:38;;;;;;;17.60;11.30;;;;;;;9.67;71.14;96118.00;104895;1257;97054;-82
2024/03/11 05:36:47;;;;;;;17.70;10.90;;;;;;;9.69;71.23;96124.52;104996;1254;97382;-82
2024/03/11 05:39:45;;;;;;;19.10;10.50;;;;;;;9.71;71.16;96128.88;104989;1259;101181;-81
2024/03/11 05:42:36;;;;;;;16.30;10.80;;;;;;;9.73;71.10;96134.42;104924;1257;100119;-85
2024/03/11 05:45:25;;;;;;;14.10;9.00;;;;;;;9.76;71.08;96143.76;105004;1260;99957;-82
2024/03/11 05:48:21;;;;;;;12.80;9.60;;;;;;;9.79;71.00;96151.61;105030;1259;96574;-82
2024/03/11 05:51:28;;;;;;;14.60;9.70;;;;;;;9.82;71.01;96158.73;105092;1259;97147;-83
2024/03/11 05:54:00;;;;;;;17.90;9.70;;;;;;;9.83;70.99;96159.95;105133;1254;101407;-83
2024/03/11 05:57:08;;;;;;;13.90;10.10;;;;;;;9.84;70.98;96165.15;104968;1269;101597;-82
2024/03/11 05:59:40;;;;;;;16.00;10.20;;;;;;;9.86;70.96;96161.68;104809;1259;99961;-83
2024/03/11 06:02:18;;;;;;;16.80;10.10;;;;;;;9.88;70.90;96165.84;104993;1273;96498;-81
2024/03/11 06:05:06;;;;;;;14.00;10.10;;;;;;;9.88;70.83;96167.40;105000;1270;97070;-83
2024/03/11 06:07:34;;;;;;;15.40;10.00;;;;;;;9.90;70.76;96168.52;100983;1259;5415090;-81
2024/03/11 06:10:03;;;;;;;16.00;10.40;;;;;;;9.92;70.71;96171.95;104803;1262;100243;-83
2024/03/11 06:12:54;;;;;;;17.10;9.20;;;;;;;9.95;70.80;96173.84;105097;1259;96827;-91
2024/03/11 06:15:42;;;;;;;14.40;9.90;;;;;;;9.98;70.79;96179.85;104815;1266;97166;-80
2024/03/11 06:18:50;;;;;;;15.50;9.70;;;;;;;10.01;70.65;96178.30;104730;1265;102445;-88
2024/03/11 06:21:59;;;;;;;13.80;10.00;;;;;;;10.04;70.75;96178.69;104511;1281;100354;-90
2024/03/11 06:25:07;;;;;;;17.70;10.00;;;;;;;10.08;70.67;96179.20;105257;1264;99055;-89
2024/03/11 06:28:01;;;;;;;17.20;10.30;;;;;;;10.13;70.73;96182.71;104325;1273;96815;-90
2024/03/11 06:31:08;;;;;;;11.80;8.80;;;;;;;10.18;70.64;96189.23;104617;1260;97077;-81
2024/03/11 06:34:21;;;;;;;13.50;9.70;;;;;;;10.22;70.57;96192.52;104764;1265;101286;-83
2024/03/11 06:37:14;;;;;;;14.30;9.60;;;;;;;10.27;70.67;96190.51;104477;1266;101726;-82
2024/03/11 06:39:50;;;;;;;13.50;9.50;;;;;;;10.30;70.51;96193.12;104541;1266;99984;-82
2024/03/11 06:42:48;;;;;;;15.10;10.40;;;;;;;10.34;70.53;96196.12;104650;1263;96993;-82
2024/03/11 06:45:58;;;;;;;15.40;9.50;;;;;;;10.39;70.58;96197.88;104634;1262;97392;-81
2024/03/11 06:49:06;;;;;;;15.20;10.40;;;;;;;10.43;70.47;96197.92;104482;1265;101213;-91
2024/03/11 06:51:54;;;;;;;17.60;9.50;;;;;;;10.50;70.53;96201.65;104663;1262;100381;-81
2024/03/11 06:55:04;;;;;;;16.30;10.40;;;;;;;10.52;70.26;96200.60;104945;1258;100054;-81
2024/03/11 06:57:55;;;;;;;17.80;9.70;;;;;;;10.54;70.20;96197.52;106524;1259;97461;-79
2024/03/11 07:00:44;;;;;;;14.00;10.30;;;;;;;10.59;70.14;96196.27;105054;1259;96929;-79
2024/03/11 07:03:52;;;;;;;14.90;9.70;;;;;;;10.63;69.96;96193.54;104867;1258;101333;-81
2024/03/11 07:06:44;;;;;;;16.90;9.80;;;;;;;10.71;70.13;96197.38;105028;1254;100352;-81
2024/03/11 07:09:45;;;;;;;15.80;9.70;;;;;;;10.79;70.04;96199.10;104992;1277;99049;-89
2024/03/11 07:12:53;;;;;;;15.70;10.10;;;;;;;10.88;69.89;96198.86;104998;1256;97758;-81
2024/03/11 07:15:52;;;;;;;15.10;10.50;;;;;;;10.97;69.80;96199.40;106133;1258;97069;-82
2024/03/11 07:18:46;;;;;;;16.40;10.20;;;;;;;11.08;69.84;96198.47;105209;1254;100745;-82
2024/03/11 07:21:54;;;;;;;18.00;11.10;;;;;;;11.19;69.70;96197.76;104836;1268;101407;-82
2024/03/11 07:25:03;;;;;;;17.80;11.50;;;;;;;11.29;69.29;96201.85;105038;1260;100595;-81
2024/03/11 07:28:00;;;;;;;15.70;10.10;;;;;;;11.40;69.21;96202.95;104992;1257;96579;-82
2024/03/11 07:30:51;;;;;;;12.90;9.40;;;;;;;11.49;68.99;96207.91;105063;1267;96558;-82
2024/03/11 07:33:59;;;;;;;16.30;10.10;;;;;;;11.55;68.51;96212.77;104899;1260;101893;-83
2024/03/11 07:36:35;;;;;;;17.50;10.00;;;;;;;11.57;68.21;96214.00;104889;1258;101465;-83
2024/03/11 07:39:16;;;;;;;16.10;11.00;;;;;;;11.60;68.02;96216.98;104766;1260;98676;-86
2024/03/11 07:41:59;;;;;;;18.80;10.50;;;;;;;11.61;67.86;96223.02;105053;1259;97925;-82
2024/03/11 07:45:10;;;;;;;21.30;10.90;;;;;;;11.62;67.28;96225.34;104894;1259;97164;-82
2024/03/11 07:48:22;;;;;;;18.30;9.80;;;;;;;11.62;67.54;96226.70;104795;1259;102226;-81
2024/03/11 07:51:30;;;;;;;19.30;10.30;;;;;;;11.65;67.40;96225.19;104951;1274;100895;-82
2024/03/11 07:54:29;;;;;;;14.70;9.70;;;;;;;11.68;67.40;96223.09;104963;1257;99426;-82
2024/03/11 07:57:26;;;;;;;12.60;8.70;;;;;;;11.70;67.35;96225.88;104966;1256;96817;-82
2024/03/11 07:59:57;;;;;;;16.50;9.80;;;;;;;11.75;67.47;96232.77;104772;1254;97061;-82
2024/03/11 08:03:09;;;;;;;15.70;9.90;;;;;;;11.79;67.27;96232.54;105098;1260;101438;-87
2024/03/11 08:06:09;;;;;;;16.70;9.40;;;;;;;11.86;67.36;96238.35;104899;1262;100449;-81
2024/03/11 08:08:45;;;;;;;17.50;8.80;;;;;;;11.89;66.95;96244.56;105533;1260;99132;-83
2024/03/11 08:11:53;;;;;;;13.40;9.30;;;;;;;11.90;66.80;96251.08;104907;1262;96546;-82
2024/03/11 08:14:54;;;;;;;19.00;9.20;;;;;;;11.90;66.48;96255.09;105086;1259;97173;-82
2024/03/11 08:18:03;;;;;;;23.70;10.90;;;;;;;11.91;66.44;96258.66;105037;1259;102434;-79
2024/03/11 08:20:55;;;;;;;19.50;11.10;;;;;;;11.94;66.43;96260.77;105414;1258;100762;-79
2024/03/11 08:24:03;;;;;;;20.20;10.60;;;;;;;11.98;66.79;96255.30;105359;1259;106691;-82
2024/03/11 08:26:51;;;;;;;18.70;10.70;;;;;;;12.05;66.87;96256.39;105005;1259;96564;-83
2024/03/11 08:29:40;;;;;;;18.80;10.50;;;;;;;12.10;66.92;96256.56;104974;1256;97770;-82
2024/03/11 08:32:48;;;;;;;15.80;9.30;;;;;;;12.15;66.76;96261.30;105107;1259;101254;-82
2024/03/11 08:35:58;;;;;;;14.70;9.00;;;;;;;12.22;66.34;96263.70;105120;1254;100315;-82
2024/03/11 08:39:10;;;;;;;14.20;9.20;;;;;;;12.27;66.13;96265.52;104886;1270;99100;-83
2024/03/11 08:41:41;;;;;;;20.20;8.70;;;;;;;12.33;66.01;96266.61;104960;1260;96918;-82
2024/03/11 08:44:39;;;;;;;16.80;8.90;;;;;;;12.39;66.06;96270.49;105029;1259;97093;-82
2024/03/11 08:47:47;;;;;;;15.90;9.90;;;;;;;12.44;65.63;96269.38;104889;1259;100826;-89
2024/03/11 08:50:46;;;;;;;15.40;9.20;;;;;;;12.48;65.44;96271.21;104882;1254;100128;-90
2024/03/11 08:53:54;;;;;;;15.80;9.20;;;;;;;12.54;65.40;96274.49;104972;1272;98841;-90
2024/03/11 08:57:02;;;;;;;13.50;8.90;;;;;;;12.59;65.41;96276.34;105018;1259;96683;-90
2024/03/11 09:00:11;;;;;;;14.20;8.90;;;;;;;12.66;65.48;96271.73;105004;1259;97947;-89
2024/03/11 09:03:03;;;;;;;14.60;9.70;;;;;;;12.72;65.48;96273.36;104880;1262;101027;-83
2024/03/11 09:06:11;;;;;;;13.20;9.20;;;;;;;12.77;65.42;96274.02;104990;1270;100391;-81
2024/03/11 09:09:24;;;;;;;15.70;8.60;;;;;;;12.81;65.16;96274.16;104921;1260;99181;-80
2024/03/11 09:12:32;;;;;;;11.70;8.60;;;;;;;12.84;65.13;96274.05;105087;1259;96826;-82
2024/03/11 09:15:40;;;;;;;16.60;9.10;;;;;;;12.87;65.27;96276.09;105156;1262;97013;-81
2024/03/11 09:18:48;;;;;;;17.00;9.80;;;;;;;12.90;65.44;96277.20;108584;1254;100788;-79
2024/03/11 09:21:18;;;;;;;17.40;9.50;;;;;;;12.91;65.16;96279.34;108496;1255;101522;-80
2024/03/11 09:24:11;;;;;;;15.80;9.60;;;;;;;12.92;65.32;96281.02;105326;1254;99980;-82
2024/03/11 09:27:10;;;;;;;18.70;9.10;;;;;;;12.91;64.98;96280.77;104986;1259;97786;-82
2024/03/11 09:30:18;;;;;;;17.50;9.70;;;;;;;12.90;65.31;96281.55;104950;1268;96518;-81
2024/03/11 09:33:27;;;;;;;14.10;9.60;;;;;;;12.91;65.60;96282.64;105125;1258;100923;-81
2024/03/11 09:36:19;;;;;;;16.50;10.40;;;;;;;12.88;65.67;96279.63;105018;1260;100093;-81
2024/03/11 09:39:29;;;;;;;14.00;9.30;;;;;;;12.84;66.03;96279.50;104860;1258;100134;-80
2024/03/11 09:42:37;;;;;;;17.60;10.00;;;;;;;12.76;66.27;96278.27;104889;1259;97740;-82
2024/03/11 09:45:40;;;;;;;16.70;9.60;;;;;;;12.67;66.26;96279.80;104750;1261;97788;-82
2024/03/11 09:48:49;;;;;;;13.90;9.60;;;;;;;12.61;66.69;96278.31;104942;1260;101365;-88
2024/03/11 09:51:50;;;;;;;17.50;10.70;;;;;;;12.60;67.29;96282.25;105019;1268;101495;-87
2024/03/11 09:54:59;;;;;;;18.10;10.30;;;;;;;12.59;67.51;96281.65;105009;1259;107264;-85
2024/03/11 09:58:00;;;;;;;13.90;9.30;;;;;;;12.59;67.66;96285.65;104825;1258;96649;-86
2024/03/11 10:01:07;;;;;;;15.00;10.80;;;;;;;12.58;67.66;96284.65;105001;1260;97286;-83
2024/03/11 10:03:46;;;;;;;16.20;10.40;;;;;;;12.58;68.11;96283.14;105030;1270;102506;-81
2024/03/11 10:06:56;;;;;;;15.90;10.20;;;;;;;12.59;68.22;96286.57;105017;1267;101482;-83
2024/03/11 10:10:04;;;;;;;14.30;10.30;;;;;;;12.60;68.15;96288.96;105005;1259;99981;-81
2024/03/11 10:13:11;;;;;;;16.30;10.10;;;;;;;12.59;68.24;96290.14;104856;1260;96666;-80
2024/03/11 10:15:59;;;;;;;18.00;10.00;;;;;;;12.59;68.39;96292.09;104925;1266;97074;-84
2024/03/11 10:19:14;;;;;;;17.60;10.40;;;;;;;12.58;68.38;96291.75;104890;1268;103349;-83
2024/03/11 10:22:13;;;;;;;19.90;10.20;;;;;;;12.61;68.35;96291.30;104947;1264;100277;-87
2024/03/11 10:25:13;;;;;;;14.80;9.60;;;;;;;12.67;68.55;96290.95;104820;1260;107304;-88
2024/03/11 10:28:06;;;;;;;18.00;10.60;;;;;;;12.72;68.44;96290.35;104988;1258;96558;-90
2024/03/11 10:31:15;;;;;;;17.60;10.30;;;;;;;12.76;68.24;96292.69;104870;1260;97810;-82
2024/03/11 10:34:28;;;;;;;17.30;10.70;;;;;;;12.83;68.49;96292.11;104886;1258;101275;-80
2024/03/11 10:37:37;;;;;;;17.30;10.00;;;;;;;12.89;68.89;96292.15;104570;1274;101479;-81
2024/03/11 10:40:49;;;;;;;14.10;10.40;;;;;;;12.95;68.77;96289.73;104650;1266;98979;-81
2024/03/11 10:44:03;;;;;;;17.30;10.50;;;;;;;12.98;68.83;96286.23;108050;1260;94617;-84
2024/03/11 10:47:05;;;;;;;17.60;10.20;;;;;;;13.04;68.50;96289.05;104689;1265;97084;-77
2024/03/11 10:50:00;;;;;;;20.20;11.40;;;;;;;13.10;68.79;96290.02;104910;1264;101205;-79
2024/03/11 10:53:12;;;;;;;15.70;10.60;;;;;;;13.15;68.85;96288.14;106286;1260;100397;-79
2024/03/11 10:56:10;;;;;;;15.10;10.10;;;;;;;13.18;68.69;96288.10;104152;1280;99075;-80
2024/03/11 10:59:19;;;;;;;13.70;10.10;;;;;;;13.20;68.67;96289.06;104111;1271;97758;-80
2024/03/11 11:02:19;;;;;;;18.60;11.00;;;;;;;13.23;68.95;96290.50;104340;1267;97082;-81
2024/03/11 11:05:32;;;;;;;19.80;11.10;;;;;;;13.23;68.72;96287.30;104620;1274;101413;-80
2024/03/11 11:08:42;;;;;;;18.60;9.80;;;;;;;13.26;68.50;96289.66;106252;1271;100484;-80
2024/03/11 11:11:51;;;;;;;19.30;10.20;;;;;;;13.27;68.36;96285.90;104313;1273;99043;-80
2024/03/11 11:14:33;;;;;;;18.00;9.10;;;;;;;13.26;68.34;96281.87;104163;1273;97401;-78
2024/03/11 11:17:42;;;;;;;16.80;10.00;;;;;;;13.21;68.13;96281.38;104387;1267;96489;-81
2024/03/11 11:20:38;;;;;;;16.10;10.00;;;;;;;13.16;67.80;96281.05;104291;1270;102246;-82
2024/03/11 11:23:47;;;;;;;16.30;9.70;;;;;;;13.15;67.94;96278.44;104444;1276;100261;-81
2024/03/11 11:27:01;;;;;;;15.20;10.20;;;;;;;13.08;68.14;96279.90;104610;1270;99033;-83
2024/03/11 11:30:09;;;;;;;19.30;11.10;;;;;;;13.04;68.67;96277.96;104919;1261;96716;-81
2024/03/11 11:33:18;;;;;;;15.40;11.30;;;;;;;13.05;69.16;96276.94;104483;1271;97214;-82
2024/03/11 11:36:10;;;;;;;17.20;11.20;;;;;;;13.05;69.50;96278.13;104501;1276;102386;-85
2024/03/11 11:39:32;;;;;;;16.50;11.50;;;;;;;13.06;69.86;96278.79;104740;1269;100389;-80
2024/03/11 11:42:53;;;;;;;17.30;10.40;;;;;;;13.08;69.84;96280.33;104266;1285;99044;-81
2024/03/11 11:46:09;;;;;;;17.00;11.00;;;;;;;13.03;69.58;96280.72;103752;1271;97737;-82
2024/03/11 11:49:13;;;;;;;18.70;12.00;;;;;;;13.04;69.98;96285.37;103194;1286;97066;-81
2024/03/11 11:52:14;;;;;;;17.50;11.50;;;;;;;13.04;70.45;96286.52;103099;1283;100365;-83
2024/03/11 11:55:26;;;;;;;18.90;11.60;;;;;;;13.01;70.79;96286.88;103393;1288;100393;-85
2024/03/11 11:58:38;;;;;;;23.60;12.00;;;;;;;12.98;70.50;96289.27;103475;1279;100017;-89
2024/03/11 12:01:28;;;;;;;22.80;13.00;;;;;;;12.97;70.61;96288.02;103740;1273;97525;-81
2024/03/11 12:04:19;;;;;;;15.50;11.70;;;;;;;12.97;70.68;96286.60;103416;1277;97400;-82
2024/03/11 12:07:13;;;;;;;14.40;11.20;;;;;;;12.97;70.97;96284.05;103510;1280;101394;-82
2024/03/11 12:10:29;;;;;;;21.10;11.10;;;;;;;12.99;71.04;96279.69;103587;1280;100448;-84
2024/03/11 12:13:38;;;;;;;15.20;10.60;;;;;;;12.97;70.63;96279.40;103443;1279;98521;-82
2024/03/11 12:16:30;;;;;;;17.40;11.10;;;;;;;12.95;70.89;96277.25;103540;1280;96624;-82
2024/03/11 12:19:22;;;;;;;19.00;12.40;;;;;;;12.93;70.93;96275.06;104190;1274;96692;-81
2024/03/11 12:21:58;;;;;;;15.00;11.00;;;;;;;12.90;70.88;96275.38;107567;1263;101495;-79
2024/03/11 12:25:07;;;;;;;11.80;8.80;;;;;;;12.89;71.14;96275.10;107992;1262;101427;-80
2024/03/11 12:28:07;;;;;;;12.90;9.40;;;;;;;12.91;70.96;96272.95;104788;1263;100349;-80
2024/03/11 12:31:19;;;;;;;13.60;8.30;;;;;;;12.92;70.93;96272.69;105065;1265;96645;-80
2024/03/11 12:34:28;;;;;;;9.60;7.80;;;;;;;12.84;70.30;96273.83;104893;1260;97138;-88
2024/03/11 12:37:26;;;;;;;11.40;8.30;;;;;;;12.77;70.32;96273.20;105039;1260;101096;-82
2024/03/11 12:40:24;;;;;;;10.10;6.80;;;;;;;12.76;70.51;96264.64;104894;1260;100133;-82
2024/03/11 12:43:41;;;;;;;9.70;6.50;;;;;;;12.75;70.31;96267.88;104773;1269;98999;-81
2024/03/11 12:46:50;;;;;;;8.60;6.10;;;;;;;12.73;69.88;96268.16;104742;1269;96647;-81
2024/03/11 12:49:51;;;;;;;10.30;6.30;;;;;;;12.69;69.45;96270.17;104893;1268;97239;-83
2024/03/11 12:52:53;;;;;;;15.30;6.00;;;;;;;12.66;69.34;96268.41;104813;1257;101358;-81
2024/03/11 12:55:54;;;;;;;9.10;6.00;;;;;;;12.61;69.12;96269.64;104833;1257;100424;-81
2024/03/11 12:59:02;;;;;;;9.40;5.80;;;;;;;12.58;69.21;96270.64;104875;1263;100241;-87
2024/03/11 13:01:51;;;;;;;7.30;5.30;;;;;;;12.57;68.94;96270.23;105324;1270;96577;-80
2024/03/11 13:04:37;;;;;;;10.10;5.40;;;;;;;12.55;68.82;96269.79;104813;1260;97237;-80
2024/03/11 13:07:46;;;;;;;10.20;5.10;;;;;;;12.52;68.67;96269.11;105087;1258;101369;-80
2024/03/11 13:10:39;;;;;;;7.40;4.70;;;;;;;12.53;68.69;96270.92;108366;1257;101315;-79
2024/03/11 13:13:57;;;;;;;6.40;4.60;;;;;;;12.57;68.74;96271.81;108002;1257;100524;-80
2024/03/11 13:16:38;;;;;;;8.70;4.70;;;;;;;12.57;68.50;96272.52;104921;1258;97387;-80
2024/03/11 13:19:46;;;;;;;9.30;4.90;;;;;;;12.55;68.14;96270.23;104983;1260;97079;-81
2024/03/11 13:22:55;;;;;;;8.50;5.30;;;;;;;12.53;68.27;96271.30;105059;1262;101370;-79
2024/03/11 13:26:03;;;;;;;7.10;4.40;;;;;;;12.57;68.34;96270.40;104967;1260;100323;-80
2024/03/11 13:29:12;;;;;;;7.50;4.40;;;;;;;12.57;68.11;96268.55;105144;1261;99049;-81
2024/03/11 13:32:21;;;;;;;5.80;4.10;;;;;;;12.57;68.28;96265.04;105121;1261;96547;-81
2024/03/11 13:35:13;;;;;;;7.80;4.60;;;;;;;12.58;67.91;96265.39;104871;1257;96995;-82
2024/03/11 13:38:04;;;;;;;7.60;4.90;;;;;;;12.58;67.97;96264.63;104761;1270;101317;-82